Time;durP1;ratioP1;P1;durP2;ratioP2;P2;SDS_P1;SDS_P2;PMS_P1;PMS_P2;Temp;Humidity;BMP_temperature;BMP_pressure;BME280_temperature;BME280_humidity;BME280_pressure;Samples;Min_cycle;Max_cycle;Signal;HPM_P1;HPM_P2
2021/01/07 00:00:07;;;;;;;38.65;17.88;;;1.60;99.90;;;;;;5095410;28;20028;-72
2021/01/07 00:02:33;;;;;;;34.60;16.33;;;1.50;99.90;;;;;;5095785;28;20016;-72
2021/01/07 00:04:59;;;;;;;28.00;14.45;;;1.50;99.90;;;;;;5095721;28;20085;-72
2021/01/07 00:07:25;;;;;;;31.38;16.55;;;1.50;99.90;;;;;;5095651;28;20477;-72
2021/01/07 00:09:50;;;;;;;32.92;16.67;;;1.50;99.90;;;;;;5095584;28;20024;-72
2021/01/07 00:12:16;;;;;;;36.05;17.02;;;1.50;99.90;;;;;;5095230;28;20058;-72
2021/01/07 00:14:41;;;;;;;35.40;17.35;;;1.50;99.90;;;;;;5095206;28;20477;-72
2021/01/07 00:17:07;;;;;;;32.92;16.52;;;1.50;99.90;;;;;;5095195;28;20106;-72
2021/01/07 00:19:33;;;;;;;33.30;16.02;;;1.60;99.90;;;;;;5095046;28;20067;-72
2021/01/07 00:21:59;;;;;;;31.10;16.30;;;1.60;99.90;;;;;;5095071;28;20028;-72
2021/01/07 00:24:24;;;;;;;32.22;15.70;;;1.60;99.90;;;;;;5095280;28;20024;-72
2021/01/07 00:26:50;;;;;;;36.75;17.15;;;1.60;99.90;;;;;;5094989;28;20452;-72
2021/01/07 00:29:15;;;;;;;30.40;15.63;;;1.60;99.90;;;;;;5095185;28;20397;-72
2021/01/07 00:31:41;;;;;;;31.17;16.42;;;1.60;99.90;;;;;;5095181;28;20067;-72
2021/01/07 00:34:06;;;;;;;31.70;16.05;;;1.60;99.90;;;;;;5094841;28;20172;-72
2021/01/07 00:36:32;;;;;;;34.78;16.00;;;1.60;99.90;;;;;;5094854;28;20103;-72
2021/01/07 00:38:57;;;;;;;35.63;17.25;;;1.60;99.90;;;;;;5093390;28;20044;-72
2021/01/07 00:41:23;;;;;;;31.55;15.80;;;1.60;99.90;;;;;;5094988;28;20024;-72
2021/01/07 00:43:49;;;;;;;29.13;15.02;;;1.60;99.90;;;;;;5094950;28;20112;-72
2021/01/07 00:46:16;;;;;;;29.48;14.85;;;1.50;99.90;;;;;;5094926;28;20020;-72
2021/01/07 00:48:42;;;;;;;33.65;17.08;;;1.50;99.90;;;;;;5094387;28;20107;-72
2021/01/07 00:51:08;;;;;;;31.52;15.82;;;1.60;99.90;;;;;;5094824;28;20521;-72
2021/01/07 00:53:35;;;;;;;33.10;15.75;;;1.60;99.90;;;;;;5094767;28;20044;-72
2021/01/07 00:56:01;;;;;;;29.52;15.43;;;1.60;99.90;;;;;;5094717;28;20085;-72
2021/01/07 00:58:26;;;;;;;29.98;15.20;;;1.60;99.90;;;;;;5075915;28;20023;-72
2021/01/07 01:00:53;;;;;;;28.95;14.38;;;1.60;99.90;;;;;;5094690;28;20365;-72
2021/01/07 01:03:21;;;;;;;30.60;15.90;;;1.50;99.90;;;;;;5093523;28;20024;-72
2021/01/07 01:05:48;;;;;;;30.40;15.50;;;1.50;99.90;;;;;;5076193;28;20028;-72
2021/01/07 01:08:13;;;;;;;29.63;15.05;;;1.50;99.90;;;;;;5094301;28;20024;-72
2021/01/07 01:10:39;;;;;;;29.75;14.35;;;1.50;99.90;;;;;;5094533;28;20024;-72
2021/01/07 01:13:04;;;;;;;28.48;14.57;;;1.50;99.90;;;;;;5092911;28;20499;-72
2021/01/07 01:15:30;;;;;;;30.88;13.75;;;1.50;99.90;;;;;;5094403;28;20060;-72
2021/01/07 01:17:55;;;;;;;26.65;14.20;;;1.60;99.90;;;;;;5094397;28;20105;-72
2021/01/07 01:20:21;;;;;;;28.08;14.27;;;1.50;99.90;;;;;;5093156;28;20024;-72
2021/01/07 01:22:46;;;;;;;29.45;12.98;;;1.50;99.90;;;;;;5093750;28;20027;-72
2021/01/07 01:25:13;;;;;;;23.33;12.95;;;1.50;99.90;;;;;;5094307;28;20024;-72
2021/01/07 01:27:41;;;;;;;27.77;13.38;;;1.50;99.90;;;;;;5094038;28;20069;-72
2021/01/07 01:30:09;;;;;;;27.10;13.27;;;1.60;99.90;;;;;;5093994;28;20028;-72
2021/01/07 01:32:37;;;;;;;25.00;12.40;;;1.60;99.90;;;;;;5092430;28;20028;-72
2021/01/07 01:35:05;;;;;;;25.55;12.30;;;1.70;99.90;;;;;;5094225;28;20024;-72
2021/01/07 01:37:31;;;;;;;27.77;13.02;;;1.60;99.90;;;;;;5094185;28;20083;-72
2021/01/07 01:39:56;;;;;;;26.80;12.45;;;1.60;99.90;;;;;;5092306;28;20553;-72
2021/01/07 01:42:23;;;;;;;27.45;11.48;;;1.60;99.90;;;;;;5094116;28;20048;-72
2021/01/07 01:44:49;;;;;;;21.70;10.95;;;1.60;99.90;;;;;;5093865;28;20031;-72
2021/01/07 01:47:15;;;;;;;23.02;11.77;;;1.70;99.90;;;;;;5093844;28;20435;-72
2021/01/07 01:49:41;;;;;;;22.45;11.43;;;1.70;99.90;;;;;;5094061;28;20032;-72
2021/01/07 01:52:06;;;;;;;23.42;12.15;;;1.70;99.90;;;;;;5094016;28;20107;-72
2021/01/07 01:54:32;;;;;;;24.88;10.85;;;1.60;99.90;;;;;;5092562;28;20020;-72
2021/01/07 01:56:58;;;;;;;19.15;10.80;;;1.60;99.90;;;;;;5093424;28;20381;-72
2021/01/07 01:59:29;;;;;;;20.45;9.93;;;1.70;99.90;;;;;;5093848;28;20039;-72
2021/01/07 02:01:54;;;;;;;19.52;9.35;;;1.70;99.90;;;;;;5097166;28;20472;-72
2021/01/07 02:04:20;;;;;;;19.33;9.98;;;1.70;99.90;;;;;;5098044;28;20104;-72
2021/01/07 02:06:47;;;;;;;18.80;9.63;;;1.70;99.90;;;;;;5097420;28;20016;-72
2021/01/07 02:09:13;;;;;;;16.90;8.32;;;1.70;99.90;;;;;;5097938;28;20368;-72
2021/01/07 02:11:40;;;;;;;19.67;8.88;;;1.70;99.90;;;;;;5097891;28;20512;-72
2021/01/07 02:14:05;;;;;;;18.15;9.38;;;1.70;99.90;;;;;;5097549;28;20085;-72
2021/01/07 02:16:31;;;;;;;17.17;8.27;;;1.70;99.90;;;;;;5097795;28;20020;-72
2021/01/07 02:18:57;;;;;;;16.45;8.68;;;1.70;99.90;;;;;;5097669;28;20028;-72
2021/01/07 02:21:23;;;;;;;18.60;9.02;;;1.70;99.90;;;;;;5097722;28;20024;-72
2021/01/07 02:23:52;;;;;;;18.27;8.93;;;1.80;99.90;;;;;;5097394;28;20020;-72
2021/01/07 02:26:19;;;;;;;15.00;8.35;;;1.70;99.90;;;;;;5097609;28;20032;-72
2021/01/07 02:28:46;;;;;;;17.45;8.70;;;1.70;99.90;;;;;;5097570;28;20016;-72
2021/01/07 02:31:11;;;;;;;18.10;9.73;;;1.70;99.90;;;;;;5097270;28;20115;-72
2021/01/07 02:33:37;;;;;;;21.73;10.55;;;1.70;99.90;;;;;;5097204;28;20063;-72
2021/01/07 02:36:03;;;;;;;22.10;10.40;;;1.70;99.90;;;;;;5097434;28;20028;-72
2021/01/07 02:38:29;;;;;;;18.38;10.10;;;1.70;99.90;;;;;;5097057;28;20441;-72
2021/01/07 02:40:54;;;;;;;21.00;10.48;;;1.70;99.90;;;;;;5097042;28;20059;-72
2021/01/07 02:43:20;;;;;;;22.42;11.57;;;1.60;99.90;;;;;;5097040;28;20024;-72
2021/01/07 02:45:45;;;;;;;25.10;11.93;;;1.60;99.90;;;;;;5095385;28;20062;-72
2021/01/07 02:48:11;;;;;;;26.20;12.07;;;1.60;99.90;;;;;;5096614;28;20027;-72
2021/01/07 02:50:36;;;;;;;22.90;12.50;;;1.60;99.90;;;;;;5078421;28;20035;-72
2021/01/07 02:53:02;;;;;;;27.60;12.52;;;1.60;99.90;;;;;;5097091;28;20029;-72
2021/01/07 02:55:27;;;;;;;28.30;14.18;;;1.60;99.90;;;;;;5096488;28;20028;-72
2021/01/07 02:57:53;;;;;;;31.02;14.98;;;1.60;99.90;;;;;;5096996;28;20031;-72
2021/01/07 03:00:19;;;;;;;35.42;16.30;;;1.60;99.90;;;;;;5096855;28;20457;-72
2021/01/07 03:02:44;;;;;;;29.60;14.93;;;1.60;99.90;;;;;;5096909;28;20024;-72
2021/01/07 03:05:11;;;;;;;29.42;15.77;;;1.60;99.90;;;;;;5096872;28;20020;-72
2021/01/07 03:07:36;;;;;;;30.95;15.35;;;1.60;99.90;;;;;;5095652;28;20415;-72
2021/01/07 03:10:06;;;;;;;34.22;15.52;;;1.60;99.90;;;;;;5096777;28;20024;-72
2021/01/07 03:12:32;;;;;;;35.17;16.70;;;1.60;99.90;;;;;;5095727;28;20016;-72
2021/01/07 03:14:57;;;;;;;34.28;16.85;;;1.60;99.90;;;;;;5096119;28;20024;-72
2021/01/07 03:17:23;;;;;;;34.70;15.90;;;1.70;99.90;;;;;;5096644;28;20099;-72
2021/01/07 03:19:48;;;;;;;32.80;15.63;;;1.70;99.90;;;;;;5095366;28;20140;-72
2021/01/07 03:22:14;;;;;;;32.10;15.45;;;1.70;99.90;;;;;;5096253;28;20047;-72
2021/01/07 03:24:39;;;;;;;39.88;17.00;;;1.70;99.90;;;;;;5096217;28;20140;-72
2021/01/07 03:27:05;;;;;;;40.30;17.67;;;1.60;99.90;;;;;;5096448;28;20376;-72
2021/01/07 03:29:30;;;;;;;36.10;17.45;;;1.60;99.90;;;;;;5096438;28;20074;-72
2021/01/07 03:31:56;;;;;;;39.03;17.77;;;1.60;99.90;;;;;;5096338;28;20074;-72
2021/01/07 03:34:22;;;;;;;41.85;18.60;;;1.60;99.90;;;;;;5095718;28;20028;-72
2021/01/07 03:36:47;;;;;;;47.15;20.17;;;1.60;99.90;;;;;;5095674;28;20064;-72
2021/01/07 03:39:13;;;;;;;45.10;21.05;;;1.60;99.90;;;;;;5095642;28;20097;-72
2021/01/07 03:41:38;;;;;;;57.78;24.33;;;1.70;99.90;;;;;;5094727;28;20024;-72
2021/01/07 03:44:05;;;;;;;66.40;26.80;;;1.70;99.90;;;;;;5096133;28;20020;-72
2021/01/07 03:46:31;;;;;;;60.95;27.35;;;1.70;99.90;;;;;;5095836;28;20369;-72
2021/01/07 03:48:57;;;;;;;62.13;28.52;;;1.60;99.90;;;;;;5095482;28;20032;-72
2021/01/07 03:51:22;;;;;;;63.08;30.60;;;1.70;99.90;;;;;;5095940;28;20032;-72
2021/01/07 03:53:48;;;;;;;69.38;29.30;;;1.70;99.90;;;;;;5095867;28;20073;-72
2021/01/07 03:56:13;;;;;;;66.35;29.52;;;1.70;99.90;;;;;;5095915;28;20047;-72
2021/01/07 03:58:39;;;;;;;65.82;29.85;;;1.70;99.90;;;;;;5095732;28;20039;-72
2021/01/07 04:01:04;;;;;;;69.15;30.70;;;1.70;99.90;;;;;;5094589;28;20059;-72
2021/01/07 04:03:30;;;;;;;66.70;32.22;;;1.70;99.90;;;;;;5095445;28;20027;-72
2021/01/07 04:05:55;;;;;;;68.03;32.33;;;1.60;99.90;;;;;;5095637;28;20074;-72
2021/01/07 04:08:21;;;;;;;70.68;32.97;;;1.60;99.90;;;;;;5095643;28;20020;-72
2021/01/07 04:10:47;;;;;;;71.63;32.35;;;1.60;99.90;;;;;;5095013;28;20012;-72
2021/01/07 04:13:13;;;;;;;71.50;31.63;;;1.60;99.90;;;;;;5095069;28;20035;-72
2021/01/07 04:15:38;;;;;;;76.22;33.17;;;1.60;99.90;;;;;;5095552;28;20020;-72
2021/01/07 04:18:05;;;;;;;73.15;33.80;;;1.60;99.90;;;;;;5095541;28;20104;-72
2021/01/07 04:20:31;;;;;;;69.40;33.42;;;1.60;99.90;;;;;;5095326;28;20024;-72
2021/01/07 04:22:56;;;;;;;75.35;33.70;;;1.60;99.90;;;;;;5094225;28;20024;-72
2021/01/07 04:25:22;;;;;;;73.35;32.13;;;1.70;99.90;;;;;;5095321;28;20106;-72
2021/01/07 04:27:47;;;;;;;78.00;34.35;;;1.70;99.90;;;;;;5094693;28;20028;-72
2021/01/07 04:30:13;;;;;;;85.25;34.85;;;1.70;99.90;;;;;;5094951;28;20028;-72
2021/01/07 04:32:39;;;;;;;80.03;36.10;;;1.60;99.90;;;;;;5094933;28;20572;-72
2021/01/07 04:35:05;;;;;;;82.50;37.08;;;1.70;99.90;;;;;;5095132;28;20060;-72
2021/01/07 04:37:31;;;;;;;86.78;36.35;;;1.70;99.90;;;;;;5095084;28;20453;-72
2021/01/07 04:39:57;;;;;;;88.63;38.03;;;1.70;99.90;;;;;;5094335;28;20097;-72
2021/01/07 04:42:22;;;;;;;88.97;38.70;;;1.70;99.90;;;;;;5094736;28;20020;-72
2021/01/07 04:44:48;;;;;;;87.32;37.75;;;1.70;99.90;;;;;;5094945;28;20020;-72
2021/01/07 04:47:14;;;;;;;90.10;37.63;;;1.70;99.90;;;;;;5076494;28;20039;-72
2021/01/07 04:49:41;;;;;;;87.90;37.65;;;1.70;99.90;;;;;;5094895;28;20039;-72
2021/01/07 04:52:06;;;;;;;89.18;37.33;;;1.60;99.90;;;;;;5094836;28;20112;-72
2021/01/07 04:54:32;;;;;;;86.18;36.63;;;1.70;99.90;;;;;;5094775;28;20064;-72
2021/01/07 04:56:58;;;;;;;83.22;37.10;;;1.60;99.90;;;;;;5094733;28;20071;-72
2021/01/07 04:59:24;;;;;;;99.05;38.30;;;1.70;99.90;;;;;;5094375;28;20035;-72
2021/01/07 05:01:50;;;;;;;86.93;38.30;;;1.60;99.90;;;;;;5094697;28;20020;-72
2021/01/07 05:04:17;;;;;;;85.90;36.22;;;1.70;99.90;;;;;;5094343;28;20020;-72
2021/01/07 05:06:46;;;;;;;90.15;37.42;;;1.70;99.90;;;;;;5094644;28;20027;-72
2021/01/07 05:09:12;;;;;;;95.57;38.10;;;1.70;99.90;;;;;;5094605;28;20130;-72
2021/01/07 05:11:38;;;;;;;93.20;39.60;;;1.60;99.90;;;;;;5094555;28;20066;-72
2021/01/07 05:14:05;;;;;;;90.15;38.17;;;1.60;99.90;;;;;;5093953;28;20458;-72
2021/01/07 05:16:32;;;;;;;92.18;39.35;;;1.60;99.90;;;;;;5094480;28;20035;-72
2021/01/07 05:19:01;;;;;;;84.53;35.28;;;1.70;99.90;;;;;;5094015;28;20119;-72
2021/01/07 05:21:27;;;;;;;89.13;37.38;;;1.70;99.90;;;;;;5094329;28;20023;-72
2021/01/07 05:23:53;;;;;;;88.88;37.80;;;1.70;99.90;;;;;;5093744;28;20020;-72
2021/01/07 05:26:20;;;;;;;99.70;38.55;;;1.70;99.90;;;;;;5094077;28;20374;-72
2021/01/07 05:28:48;;;;;;;93.53;37.17;;;1.70;99.90;;;;;;5094268;28;20024;-72
2021/01/07 05:31:17;;;;;;;85.65;34.97;;;1.70;99.90;;;;;;5093714;28;20062;-72
2021/01/07 05:33:43;;;;;;;84.40;35.35;;;1.70;99.90;;;;;;5093885;28;20157;-72
2021/01/07 05:36:28;;;;;;;79.72;34.55;;;1.70;99.90;;;;;;5094073;28;20099;-72
2021/01/07 05:39:06;;;;;;;60.20;28.20;;;1.70;99.90;;;;;;5093706;28;20690;-72
2021/01/07 05:41:33;;;;;;;69.35;29.67;;;1.70;99.90;;;;;;5094160;28;20037;-72
2021/01/07 05:44:03;;;;;;;53.22;24.55;;;1.70;99.90;;;;;;5093927;28;20131;-71
2021/01/07 05:46:30;;;;;;;43.72;22.20;;;1.70;99.90;;;;;;5092310;28;20031;-71
2021/01/07 05:48:56;;;;;;;46.78;23.00;;;1.70;99.90;;;;;;5094046;28;20376;-72
2021/01/07 05:51:27;;;;;;;45.53;18.88;;;1.60;99.90;;;;;;5094042;28;20481;-71
2021/01/07 05:53:54;;;;;;;43.90;20.75;;;1.60;99.90;;;;;;5093774;28;20024;-71
2021/01/07 05:56:21;;;;;;;46.33;21.55;;;1.60;99.90;;;;;;5094033;28;20024;-72
2021/01/07 05:58:48;;;;;;;48.17;21.77;;;1.60;99.90;;;;;;5093630;28;20465;-71
2021/01/07 06:01:16;;;;;;;45.38;22.48;;;1.60;99.90;;;;;;5093695;28;20070;-71
2021/01/07 06:03:57;;;;;;;44.25;20.85;;;1.60;99.90;;;;;;5093937;28;20445;-71
2021/01/07 06:06:23;;;;;;;42.85;20.65;;;1.60;99.90;;;;;;5093968;28;20032;-71
2021/01/07 06:08:50;;;;;;;51.72;20.95;;;1.60;99.90;;;;;;5093686;28;20090;-71
2021/01/07 06:11:18;;;;;;;44.40;20.15;;;1.60;99.90;;;;;;5093885;28;20080;-71
2021/01/07 06:13:45;;;;;;;48.55;19.65;;;1.60;99.90;;;;;;5092469;28;20021;-71
2021/01/07 06:16:14;;;;;;;41.50;19.17;;;1.60;99.90;;;;;;5093596;28;20077;-71
2021/01/07 06:18:39;;;;;;;44.83;19.95;;;1.60;99.90;;;;;;5093722;28;20027;-71
2021/01/07 06:21:08;;;;;;;40.40;19.70;;;1.60;99.90;;;;;;5093510;28;20020;-71
2021/01/07 06:23:40;;;;;;;39.47;18.73;;;1.50;99.90;;;;;;5093810;28;20065;-71
2021/01/07 06:26:24;;;;;;;42.53;19.33;;;1.50;99.90;;;;;;5093186;28;20019;-72
2021/01/07 06:28:59;;;;;;;40.30;17.75;;;1.50;99.90;;;;;;5093460;28;20491;-72
2021/01/07 06:31:39;;;;;;;40.20;18.58;;;1.60;99.90;;;;;;5093723;28;20440;-72
2021/01/07 06:34:05;;;;;;;38.95;18.55;;;1.60;99.90;;;;;;5093654;28;20035;-72
2021/01/07 06:36:42;;;;;;;41.25;19.73;;;1.60;99.90;;;;;;5091618;28;20028;-72
2021/01/07 06:39:08;;;;;;;42.15;19.90;;;1.60;99.90;;;;;;5091899;28;20064;-73
2021/01/07 06:41:35;;;;;;;41.58;18.90;;;1.60;99.90;;;;;;5093274;28;20024;-74
2021/01/07 06:44:03;;;;;;;36.83;19.48;;;1.60;99.90;;;;;;5093546;28;20024;-73
2021/01/07 06:46:41;;;;;;;37.55;18.20;;;1.60;99.90;;;;;;5094526;28;20029;-75
2021/01/07 06:49:27;;;;;;;43.70;20.25;;;1.60;99.90;;;;;;5097198;28;20373;-73
2021/01/07 06:51:57;;;;;;;42.47;20.42;;;1.50;99.90;;;;;;5097013;28;20024;-74
2021/01/07 06:54:27;;;;;;;43.88;21.08;;;1.50;99.90;;;;;;5097099;28;20080;-71
2021/01/07 06:56:54;;;;;;;40.45;19.40;;;1.60;99.90;;;;;;5096942;28;20055;-72
2021/01/07 06:59:22;;;;;;;35.05;17.80;;;1.50;99.90;;;;;;5095848;28;20447;-73
2021/01/07 07:01:50;;;;;;;33.42;16.77;;;1.40;99.90;;;;;;5095680;28;20346;-71
2021/01/07 07:04:24;;;;;;;32.65;16.70;;;1.40;99.90;;;;;;5095016;28;20054;-72
2021/01/07 07:06:57;;;;;;;37.75;17.42;;;1.50;99.90;;;;;;5096820;28;20028;-73
2021/01/07 07:09:25;;;;;;;32.67;16.75;;;1.40;99.90;;;;;;5096787;28;20158;-73
2021/01/07 07:11:52;;;;;;;27.70;14.25;;;1.40;99.90;;;;;;5096724;28;20024;-75
2021/01/07 07:14:19;;;;;;;29.15;14.35;;;1.50;99.90;;;;;;5096662;28;20023;-73
2021/01/07 07:16:47;;;;;;;26.50;13.45;;;1.50;99.90;;;;;;5096257;28;20028;-73
2021/01/07 07:19:24;;;;;;;22.33;11.65;;;1.50;99.90;;;;;;5095825;28;20486;-72
2021/01/07 07:21:56;;;;;;;19.23;10.13;;;1.40;99.90;;;;;;5094615;28;20389;-71
2021/01/07 07:24:49;;;;;;;20.17;10.40;;;1.50;99.90;;;;;;5095841;28;20025;-72
2021/01/07 07:27:17;;;;;;;18.35;9.93;;;1.50;99.90;;;;;;5095850;28;20106;-72
2021/01/07 07:29:45;;;;;;;18.90;10.30;;;1.50;99.90;;;;;;5096204;28;20056;-72
2021/01/07 07:32:27;;;;;;;22.58;11.50;;;1.50;99.90;;;;;;5096190;28;20063;-72
2021/01/07 07:34:54;;;;;;;22.52;10.38;;;1.60;99.90;;;;;;5088898;28;20028;-71
2021/01/07 07:37:24;;;;;;;22.40;9.95;;;1.50;99.90;;;;;;5095062;28;20148;-71
2021/01/07 07:39:59;;;;;;;19.52;9.75;;;1.50;99.90;;;;;;5093563;28;20443;-71
2021/01/07 07:42:27;;;;;;;18.33;9.45;;;1.50;99.90;;;;;;5095063;28;20104;-71
2021/01/07 07:44:53;;;;;;;22.75;10.57;;;1.50;99.90;;;;;;5094405;28;20048;-72
2021/01/07 07:47:22;;;;;;;20.55;11.60;;;1.50;99.90;;;;;;5094710;28;20059;-71
2021/01/07 07:49:54;;;;;;;23.38;11.43;;;1.50;99.90;;;;;;5095183;28;20028;-71
2021/01/07 07:52:21;;;;;;;20.75;10.48;;;1.50;99.90;;;;;;5095222;28;20020;-73
2021/01/07 07:55:00;;;;;;;23.90;11.85;;;1.60;99.90;;;;;;5094901;28;20024;-71
2021/01/07 07:57:26;;;;;;;39.67;19.88;;;1.60;99.90;;;;;;5095172;28;20024;-72
2021/01/07 07:59:51;;;;;;;25.42;12.45;;;1.60;99.90;;;;;;5093469;28;20024;-72
2021/01/07 08:02:17;;;;;;;25.42;12.32;;;1.60;99.90;;;;;;5094188;28;20103;-72
2021/01/07 08:04:43;;;;;;;26.77;13.02;;;1.60;99.90;;;;;;5094775;28;20020;-72
2021/01/07 08:07:09;;;;;;;25.83;13.10;;;1.60;99.90;;;;;;5094590;28;20023;-73
2021/01/07 08:09:34;;;;;;;27.65;14.25;;;1.60;99.90;;;;;;5094934;28;20024;-72
2021/01/07 08:12:01;;;;;;;23.05;12.90;;;1.60;99.90;;;;;;5094444;28;20120;-71
2021/01/07 08:14:28;;;;;;;30.75;14.80;;;1.60;99.90;;;;;;5093151;28;20055;-72
2021/01/07 08:16:56;;;;;;;27.20;13.73;;;1.60;99.90;;;;;;5094563;28;20020;-73
2021/01/07 08:19:32;;;;;;;29.10;14.60;;;1.60;99.90;;;;;;5094602;28;20544;-72
2021/01/07 08:21:58;;;;;;;28.40;14.88;;;1.70;99.90;;;;;;5094569;28;20020;-71
2021/01/07 08:24:25;;;;;;;28.38;15.90;;;1.70;99.90;;;;;;5094115;28;20035;-71
2021/01/07 08:27:19;;;;;;;28.45;15.30;;;1.60;99.90;;;;;;5094574;28;20029;-71
2021/01/07 08:29:46;;;;;;;;;;;1.70;99.90;;;;;;5073276;28;20028;-71
2021/01/07 08:32:17;;;;;;;31.15;16.27;;;1.70;99.90;;;;;;5074318;28;19904;-70
2021/01/07 08:34:44;;;;;;;31.92;16.65;;;1.70;99.90;;;;;;5073572;28;20016;-72
2021/01/07 08:37:12;;;;;;;34.25;18.15;;;1.70;99.90;;;;;;5072246;28;20021;-71
2021/01/07 08:39:40;;;;;;;43.10;18.42;;;1.80;99.90;;;;;;5073384;28;20076;-72
2021/01/07 08:42:06;;;;;;;31.40;17.15;;;1.80;99.90;;;;;;5073675;28;20017;-72
2021/01/07 08:44:32;;;;;;;30.98;17.27;;;1.80;99.90;;;;;;5073721;28;20021;-70
2021/01/07 08:46:58;;;;;;;34.25;17.08;;;1.80;99.90;;;;;;5072515;28;20435;-71
2021/01/07 08:49:23;;;;;;;29.15;15.38;;;1.80;99.90;;;;;;5073631;28;20029;-70
2021/01/07 08:51:53;;;;;;;34.15;15.10;;;1.80;99.90;;;;;;5073630;28;20043;-71
2021/01/07 08:54:20;;;;;;;29.88;14.98;;;1.70;99.90;;;;;;5073382;28;20028;-70
2021/01/07 08:56:48;;;;;;;27.75;15.23;;;1.80;99.90;;;;;;5073684;28;20161;-71
2021/01/07 08:59:37;;;;;;;32.10;15.43;;;1.80;99.90;;;;;;5073482;28;20044;-71
2021/01/07 09:04:41;;;;;;;33.70;16.23;;;1.80;99.90;;;;;;5110756;27;20343;-71
2021/01/07 09:07:08;;;;;;;35.85;16.00;;;1.80;99.90;;;;;;5109248;28;20020;-71
2021/01/07 09:09:43;;;;;;;41.53;17.90;;;1.80;99.90;;;;;;5109715;28;20089;-71
2021/01/07 09:12:20;;;;;;;38.53;19.25;;;1.90;99.90;;;;;;5111045;28;20023;-71
2021/01/07 09:14:49;;;;;;;39.38;18.73;;;1.80;99.90;;;;;;5110663;28;20024;-71
2021/01/07 09:17:16;;;;;;;40.42;19.77;;;1.90;99.90;;;;;;5109411;28;20431;-71
2021/01/07 09:19:43;;;;;;;42.72;20.88;;;1.90;99.90;;;;;;5111551;28;20027;-71
2021/01/07 09:22:14;;;;;;;52.10;21.80;;;1.90;99.90;;;;;;5111527;28;20053;-72
2021/01/07 09:24:40;;;;;;;43.83;20.52;;;1.90;99.90;;;;;;5110861;28;20039;-72
2021/01/07 09:27:11;;;;;;;47.47;22.20;;;1.90;99.90;;;;;;5111004;28;20024;-70
2021/01/07 09:29:37;;;;;;;46.72;21.63;;;2.00;99.90;;;;;;5090819;28;20107;-71
2021/01/07 09:32:04;;;;;;;51.05;22.55;;;2.00;99.90;;;;;;5090633;28;20031;-71
2021/01/07 09:34:30;;;;;;;49.95;22.90;;;2.10;99.90;;;;;;5090308;28;20504;-71
2021/01/07 09:37:01;;;;;;;49.15;25.05;;;2.10;99.90;;;;;;5090834;28;20032;-72
2021/01/07 09:39:27;;;;;;;46.55;22.90;;;2.10;99.90;;;;;;5089237;28;20385;-72
2021/01/07 09:41:53;;;;;;;53.55;25.00;;;2.10;99.90;;;;;;5090295;28;20016;-72
2021/01/07 09:44:19;;;;;;;51.72;25.67;;;2.10;99.90;;;;;;5089688;28;20384;-72
2021/01/07 09:46:44;;;;;;;52.88;25.13;;;2.20;99.90;;;;;;5089568;28;20027;-71
2021/01/07 09:49:10;;;;;;;43.33;22.73;;;2.30;99.90;;;;;;5089640;28;20027;-71
2021/01/07 09:51:35;;;;;;;43.15;21.02;;;2.20;99.90;;;;;;5089193;28;20020;-72
2021/01/07 09:54:01;;;;;;;36.63;18.10;;;2.10;99.90;;;;;;5089719;28;20047;-69
2021/01/07 09:56:26;;;;;;;35.83;18.75;;;2.10;99.90;;;;;;5089152;28;20056;-74
2021/01/07 09:58:52;;;;;;;40.55;19.52;;;2.00;99.90;;;;;;5088754;28;20382;-71
2021/01/07 10:01:39;;;;;;;39.67;18.10;;;2.00;99.90;;;;;;5088558;28;20039;-73
2021/01/07 10:04:05;;;;;;;34.25;15.38;;;2.10;99.90;;;;;;5088993;28;20041;-73
2021/01/07 10:06:31;;;;;;;31.05;14.45;;;2.10;99.90;;;;;;5089057;28;20027;-74
2021/01/07 10:08:56;;;;;;;31.90;15.10;;;2.10;99.90;;;;;;5089602;28;20016;-73
2021/01/07 10:11:22;;;;;;;29.48;13.40;;;2.10;99.90;;;;;;5088985;28;20487;-74
2021/01/07 10:13:47;;;;;;;26.08;13.00;;;2.10;99.90;;;;;;5088907;28;20028;-73
2021/01/07 10:16:14;;;;;;;27.23;14.32;;;2.20;99.90;;;;;;5075453;28;20489;-73
2021/01/07 10:18:41;;;;;;;28.58;13.93;;;2.30;99.90;;;;;;5075882;28;20046;-72
2021/01/07 10:21:10;;;;;;;28.38;15.05;;;2.30;99.90;;;;;;5075343;28;20029;-71
2021/01/07 10:23:40;;;;;;;26.70;14.43;;;2.30;99.90;;;;;;5075822;28;20021;-72
2021/01/07 10:26:05;;;;;;;29.45;15.70;;;2.40;99.90;;;;;;5074960;28;20032;-71
2021/01/07 10:28:31;;;;;;;31.92;16.17;;;2.50;99.90;;;;;;5086830;28;20359;-71
2021/01/07 10:30:57;;;;;;;33.47;17.58;;;2.50;99.90;;;;;;5094606;28;20020;-73
2021/01/07 10:33:23;;;;;;;29.52;15.63;;;2.50;99.90;;;;;;5095946;28;20382;-73
2021/01/07 10:35:49;;;;;;;34.00;16.55;;;2.50;99.90;;;;;;5095715;28;20080;-73
2021/01/07 10:38:23;;;;;;;37.58;19.83;;;2.50;99.90;;;;;;5095522;28;20031;-73
2021/01/07 10:40:50;;;;;;;36.35;19.50;;;2.50;99.90;;;;;;5095499;28;20063;-73
2021/01/07 10:43:20;;;;;;;41.08;20.98;;;2.50;99.90;;;;;;5078064;28;20070;-74
2021/01/07 10:45:49;;;;;;;40.13;21.33;;;2.50;99.90;;;;;;5095612;28;20016;-73
2021/01/07 10:48:18;;;;;;;41.20;20.58;;;2.50;99.90;;;;;;5095638;28;20024;-73
2021/01/07 10:50:45;;;;;;;40.40;20.80;;;2.50;99.90;;;;;;5095825;28;20016;-73
2021/01/07 10:53:36;;;;;;;37.85;20.00;;;2.60;99.90;;;;;;5095381;28;20488;-73
2021/01/07 10:56:04;;;;;;;34.65;18.50;;;2.70;99.90;;;;;;5095389;28;20103;-73
2021/01/07 10:58:55;;;;;;;40.45;21.52;;;2.70;99.90;;;;;;5095253;28;20534;-73
2021/01/07 11:01:49;;;;;;;34.75;19.00;;;2.70;99.90;;;;;;5095148;28;20366;-72
2021/01/07 11:04:45;;;;;;;39.53;21.35;;;2.70;99.90;;;;;;5094481;28;20051;-74
2021/01/07 11:07:16;;;;;;;43.75;21.50;;;2.80;99.90;;;;;;5094931;28;20027;-75
2021/01/07 11:09:50;;;;;;;44.60;22.92;;;2.80;99.90;;;;;;5095121;28;20028;-72
2021/01/07 11:12:26;;;;;;;50.33;25.45;;;2.60;99.90;;;;;;5094824;28;20119;-75
2021/01/07 11:15:02;;;;;;;65.93;29.35;;;2.70;99.90;;;;;;5094987;28;20034;-74
2021/01/07 11:17:30;;;;;;;56.70;27.02;;;2.80;99.90;;;;;;5094897;28;20024;-74
2021/01/07 11:19:59;;;;;;;53.65;26.20;;;2.80;99.90;;;;;;5094806;28;20028;-74
2021/01/07 11:22:27;;;;;;;53.83;26.67;;;2.80;99.90;;;;;;5094561;28;20020;-74
2021/01/07 11:24:54;;;;;;;49.08;24.02;;;2.80;99.90;;;;;;5095115;28;20412;-74
2021/01/07 11:27:22;;;;;;;49.47;25.08;;;2.80;99.90;;;;;;5093833;28;20024;-74
2021/01/07 11:29:49;;;;;;;50.35;24.98;;;3.00;99.90;;;;;;5093852;28;20073;-73
2021/01/07 11:32:16;;;;;;;47.42;23.23;;;3.00;99.90;;;;;;5094534;28;20016;-74
2021/01/07 11:34:43;;;;;;;46.83;23.90;;;3.00;99.90;;;;;;5094130;28;20026;-74
2021/01/07 11:37:32;;;;;;;46.38;24.45;;;3.10;99.90;;;;;;5093891;28;20377;-73
2021/01/07 11:45:45;;;;;;;46.65;22.58;;;3.10;99.90;;;;;;5091126;27;20142;-73
2021/01/07 11:48:12;;;;;;;48.70;23.70;;;3.00;99.90;;;;;;5089203;28;20028;-73
2021/01/07 11:50:41;;;;;;;47.38;23.55;;;3.00;99.90;;;;;;5089141;28;20103;-73
2021/01/07 11:53:06;;;;;;;54.65;25.63;;;2.90;99.90;;;;;;5089162;28;20098;-73
2021/01/07 11:55:33;;;;;;;58.17;27.23;;;2.90;99.90;;;;;;5088788;28;20070;-73
2021/01/07 11:57:59;;;;;;;56.97;25.73;;;2.90;99.90;;;;;;5089113;28;20137;-73
2021/01/07 12:00:26;;;;;;;64.55;28.35;;;2.80;99.90;;;;;;5089056;28;20457;-73
2021/01/07 12:02:53;;;;;;;63.40;28.17;;;2.80;99.90;;;;;;5090291;28;20123;-73
2021/01/07 12:05:22;;;;;;;63.65;27.45;;;2.70;99.90;;;;;;5071516;28;20066;-73
2021/01/07 12:08:25;;;;;;;64.80;29.27;;;2.80;99.90;;;;;;5089638;28;20454;-73
2021/01/07 12:10:53;;;;;;;76.18;32.70;;;2.70;99.90;;;;;;5089962;28;20026;-73
2021/01/07 12:13:25;;;;;;;74.57;33.63;;;2.60;99.90;;;;;;5089765;28;20452;-73
2021/01/07 12:15:52;;;;;;;71.60;30.20;;;2.60;99.90;;;;;;5090021;28;20066;-73
2021/01/07 12:18:18;;;;;;;76.03;32.33;;;2.60;99.90;;;;;;5088482;28;20042;-73
2021/01/07 12:20:46;;;;;;;71.85;32.60;;;2.50;99.90;;;;;;5088519;28;20028;-73
2021/01/07 12:23:13;;;;;;;72.30;33.63;;;2.60;99.90;;;;;;5071126;28;20016;-73
2021/01/07 12:25:41;;;;;;;71.28;33.28;;;2.60;99.90;;;;;;5089888;28;20159;-73
2021/01/07 12:28:07;;;;;;;74.43;32.92;;;2.60;99.90;;;;;;5089724;28;20024;-75
2021/01/07 12:30:38;;;;;;;68.55;32.05;;;2.70;99.90;;;;;;5089688;28;20020;-73
2021/01/07 12:33:43;;;;;;;69.05;31.13;;;2.70;99.90;;;;;;5087693;28;20016;-73
2021/01/07 12:36:32;;;;;;;60.92;28.50;;;2.70;99.90;;;;;;5087939;28;20118;-74
2021/01/07 12:39:38;;;;;;;60.55;29.40;;;2.70;99.90;;;;;;5088139;28;20024;-73
2021/01/07 12:42:11;;;;;;;57.75;28.05;;;2.70;99.90;;;;;;5088115;28;20111;-73
2021/01/07 12:44:42;;;;;;;60.22;28.67;;;2.50;99.90;;;;;;5104585;28;20044;-74
2021/01/07 12:47:08;;;;;;;61.38;29.00;;;2.50;99.90;;;;;;5110462;28;20022;-73
2021/01/07 12:49:35;;;;;;;57.60;28.70;;;2.60;99.90;;;;;;5094018;28;20102;-73
2021/01/07 12:52:02;;;;;;;62.55;29.33;;;2.70;99.90;;;;;;5090993;28;20066;-72